Airport ID:KVUF
Update Time (UTC):22/01/2021 09:21
Wind Speed (Knots):8
Wind Direction (Magnetic):350
Temperature (°C):5
Dew Point (°C):3
Humidity (%):88
Altimeter (inHg):29.98
Density Altitude (Feet):
Visibility:10+
Clouds (Hundreds of feet):OVC007
Present Weather:
METAR:METAR KVUF 220920Z AUTO 35009KT 10SM OVC007 05/03 A2998 RMK A01

The data displayed is for advisory purposes only and is not to be used for flight planning or operations.